createdAt,value
2019-04-07T00:01:55.062Z,61.58
2019-04-07T00:04:23.734Z,60.10
2019-04-07T00:06:52.119Z,60.60
2019-04-07T00:09:20.559Z,63.30
2019-04-07T00:11:48.831Z,58.80
2019-04-07T00:14:17.188Z,61.13
2019-04-07T00:16:45.558Z,62.08
2019-04-07T00:19:13.829Z,61.75
2019-04-07T00:21:42.328Z,63.58
2019-04-07T00:24:10.638Z,61.42
2019-04-07T00:26:39.420Z,59.20
2019-04-07T00:29:07.670Z,60.77
2019-04-07T00:31:35.930Z,60.00
2019-04-07T00:34:04.209Z,62.10
2019-04-07T00:36:32.921Z,61.40
2019-04-07T00:39:01.566Z,62.45
2019-04-07T00:41:29.978Z,61.40
2019-04-07T00:43:58.234Z,59.13
2019-04-07T00:46:26.840Z,58.73
2019-04-07T00:48:55.147Z,59.43
2019-04-07T00:51:23.414Z,59.63
2019-04-07T00:53:51.960Z,57.40
2019-04-07T00:56:20.529Z,58.65
2019-04-07T00:58:48.811Z,59.47
2019-04-07T01:01:18.550Z,60.60
2019-04-07T01:03:46.861Z,59.10
2019-04-07T01:06:15.139Z,59.80
2019-04-07T01:08:43.746Z,57.87
2019-04-07T01:11:12.284Z,61.28
2019-04-07T01:13:40.506Z,65.57
2019-04-07T01:16:08.789Z,59.50
2019-04-07T01:18:37.164Z,63.20
2019-04-07T01:21:05.411Z,64.30
2019-04-07T01:23:33.734Z,63.83
2019-04-07T01:26:01.997Z,64.67
2019-04-07T01:28:30.256Z,63.47
2019-04-07T01:30:59.061Z,64.93
2019-04-07T01:33:27.762Z,64.85
2019-04-07T01:35:56.403Z,69.53
2019-04-07T01:38:24.679Z,67.42
2019-04-07T01:40:57.265Z,63.70
2019-04-07T01:43:27.190Z,65.10
2019-04-07T01:46:09.878Z,65.50
2019-04-07T01:48:48.490Z,66.15
2019-04-07T01:51:24.633Z,64.72
2019-04-07T01:54:10.130Z,62.45
2019-04-07T01:56:46.430Z,66.23
2019-04-07T01:59:32.524Z,67.77
2019-04-07T02:02:17.479Z,67.65
2019-04-07T02:04:47.919Z,65.67
2019-04-07T02:07:18.309Z,64.03
2019-04-07T02:10:04.408Z,67.63
2019-04-07T02:12:50.686Z,69.97
2019-04-07T02:15:39.373Z,69.83
2019-04-07T02:18:25.070Z,66.87
2019-04-07T02:20:58.842Z,70.33
2019-04-07T02:23:45.093Z,69.97
2019-04-07T02:26:21.468Z,65.72
2019-04-07T02:29:00.407Z,66.53
2019-04-07T02:31:30.319Z,69.03
2019-04-07T02:34:00.244Z,68.47
2019-04-07T02:36:36.107Z,67.00
2019-04-07T02:39:23.845Z,71.97
2019-04-07T02:42:10.993Z,73.92
2019-04-07T02:44:47.002Z,69.22
2019-04-07T02:47:28.495Z,66.27
2019-04-07T02:50:10.299Z,72.73
2019-04-07T02:52:40.192Z,68.57
2019-04-07T02:55:19.670Z,69.37
2019-04-07T02:57:49.529Z,65.28
2019-04-07T03:00:22.292Z,73.47
2019-04-07T03:02:52.290Z,71.40
2019-04-07T03:05:28.168Z,64.97
2019-04-07T03:07:58.121Z,65.40
2019-04-07T03:10:37.080Z,70.27
2019-04-07T03:13:09.672Z,71.00
2019-04-07T03:15:42.916Z,70.30
2019-04-07T03:18:29.295Z,68.42
2019-04-07T03:21:04.764Z,67.00
2019-04-07T03:23:41.571Z,70.10
2019-04-07T03:26:11.543Z,71.70
2019-04-07T03:28:53.237Z,71.10
2019-04-07T03:31:32.508Z,69.12
2019-04-07T03:34:04.708Z,74.10
2019-04-07T03:37:09.640Z,67.97
2019-04-07T03:39:17.339Z,70.53
2019-04-07T03:41:47.315Z,69.47
2019-04-07T03:44:17.244Z,72.00
2019-04-07T03:46:59.918Z,67.03
2019-04-07T03:49:29.883Z,66.45
2019-04-07T03:52:09.938Z,68.17
2019-04-07T03:54:52.703Z,68.17
2019-04-07T03:57:37.438Z,70.50
2019-04-07T04:00:08.507Z,69.00
2019-04-07T04:02:41.410Z,74.70
2019-04-07T04:05:14.731Z,73.60
2019-04-07T04:07:56.777Z,72.93
2019-04-07T04:10:30.135Z,75.43
2019-04-07T04:13:16.559Z,71.00
2019-04-07T04:15:46.859Z,72.37
2019-04-07T04:18:16.165Z,73.10
2019-04-07T04:20:44.543Z,72.60
2019-04-07T04:23:12.825Z,70.40
2019-04-07T04:25:41.098Z,71.70
2019-04-07T04:28:09.395Z,67.87
2019-04-07T04:30:37.692Z,74.20
2019-04-07T04:33:06.306Z,75.28
2019-04-07T04:35:34.652Z,70.30
2019-04-07T04:38:03.791Z,68.52
2019-04-07T04:40:32.426Z,66.17
2019-04-07T04:43:01.474Z,67.60
2019-04-07T04:45:29.767Z,62.87
2019-04-07T04:47:58.205Z,66.43
2019-04-07T04:50:27.440Z,71.70
2019-04-07T04:52:56.423Z,70.20
2019-04-07T04:55:25.458Z,69.60
2019-04-07T04:57:54.508Z,69.50
2019-04-07T05:00:22.763Z,70.63
2019-04-07T05:02:51.378Z,69.33
2019-04-07T05:05:20.099Z,65.67
2019-04-07T05:07:57.692Z,63.47
2019-04-07T05:10:19.256Z,60.37
2019-04-07T05:12:48.155Z,64.50
2019-04-07T05:15:16.456Z,60.97
2019-04-07T05:17:44.808Z,66.50
2019-04-07T05:20:13.558Z,66.73
2019-04-07T05:22:42.183Z,64.67
2019-04-07T05:25:10.553Z,65.07
2019-04-07T05:27:39.191Z,63.15
2019-04-07T05:30:07.843Z,67.17
2019-04-07T05:32:36.830Z,66.85
2019-04-07T05:35:07.775Z,73.47
2019-04-07T05:37:36.188Z,69.60
2019-04-07T05:40:05.783Z,72.05
2019-04-07T05:42:34.345Z,74.77
2019-04-07T05:45:02.939Z,72.60
2019-04-07T05:47:31.499Z,79.80
2019-04-07T05:50:02.817Z,76.50
2019-04-07T05:52:30.532Z,78.90
2019-04-07T05:54:58.853Z,77.97
2019-04-07T05:57:33.372Z,81.05
2019-04-07T05:59:59.242Z,74.60
2019-04-07T06:02:31.270Z,75.93
2019-04-07T06:04:59.477Z,75.83
2019-04-07T06:07:30.679Z,79.12
2019-04-07T06:09:57.778Z,75.12
2019-04-07T06:12:26.212Z,75.15
2019-04-07T06:14:55.156Z,73.40
2019-04-07T06:17:26.322Z,75.35
2019-04-07T06:19:53.560Z,73.57
2019-04-07T06:22:22.677Z,72.33
2019-04-07T06:24:56.854Z,69.72
2019-04-07T06:27:25.137Z,70.30
2019-04-07T06:29:57.181Z,73.90
2019-04-07T06:32:24.426Z,66.63
2019-04-07T06:34:54.550Z,67.73
2019-04-07T06:37:28.828Z,66.62
2019-04-07T06:39:53.661Z,65.30
2019-04-07T06:42:22.066Z,61.40
2019-04-07T06:44:52.008Z,62.10
2019-04-07T06:47:24.982Z,60.97
2019-04-07T06:49:57.642Z,60.40
2019-04-07T06:52:43.385Z,59.30
2019-04-07T06:55:22.701Z,60.03
2019-04-07T06:58:10.027Z,57.47
2019-04-07T07:00:57.641Z,54.67
2019-04-07T07:03:44.138Z,49.37
2019-04-07T07:06:16.469Z,51.10
2019-04-07T07:08:47.479Z,48.38
2019-04-07T07:11:30.867Z,47.70
2019-04-07T07:14:09.504Z,48.00
2019-04-07T07:16:46.842Z,44.30
2019-04-07T07:19:28.552Z,46.97
2019-04-07T07:22:07.741Z,44.77
2019-04-07T07:24:34.885Z,48.50
2019-04-07T07:27:07.197Z,46.95
2019-04-07T07:29:35.286Z,44.80
2019-04-07T07:32:06.326Z,42.67
2019-04-07T07:34:39.857Z,44.63
2019-04-07T07:37:08.441Z,43.68
2019-04-07T07:39:41.952Z,45.52
2019-04-07T07:42:09.404Z,41.37
2019-04-07T07:44:39.783Z,42.60
2019-04-07T07:47:08.190Z,39.95
2019-04-07T07:49:40.318Z,40.53
2019-04-07T07:52:08.721Z,41.33
2019-04-07T07:54:36.966Z,42.37
2019-04-07T07:57:06.923Z,39.30
2019-04-07T07:59:38.958Z,38.00
2019-04-07T08:02:05.275Z,37.90
2019-04-07T08:04:33.516Z,38.03
2019-04-07T08:07:05.497Z,36.00
2019-04-07T08:09:33.821Z,36.77
2019-04-07T08:12:03.478Z,36.60
2019-04-07T08:14:32.494Z,35.17
2019-04-07T08:17:03.351Z,34.13
2019-04-07T08:19:31.805Z,35.67
2019-04-07T08:22:00.640Z,33.40
2019-04-07T08:24:29.322Z,35.47
2019-04-07T08:26:59.038Z,33.97
2019-04-07T08:29:29.186Z,34.57
2019-04-07T08:31:58.765Z,33.10
2019-04-07T08:34:30.550Z,33.63
2019-04-07T08:37:00.866Z,30.20
2019-04-07T08:39:34.097Z,28.63
2019-04-07T08:41:59.454Z,28.57
2019-04-07T08:44:29.690Z,30.40
2019-04-07T08:46:58.190Z,27.20
2019-04-07T08:49:27.638Z,25.53
2019-04-07T08:51:56.118Z,26.97
2019-04-07T08:54:24.389Z,28.80
2019-04-07T08:56:56.294Z,29.23
2019-04-07T08:59:22.746Z,29.52
2019-04-07T09:01:53.469Z,30.95
2019-04-07T09:04:21.099Z,28.73
2019-04-07T09:06:50.251Z,28.57
2019-04-07T09:09:30.893Z,26.37
2019-04-07T09:11:53.010Z,27.83
2019-04-07T09:14:18.695Z,28.53
2019-04-07T09:17:03.555Z,28.50
2019-04-07T09:19:35.799Z,28.50
2019-04-07T09:22:23.157Z,27.67
2019-04-07T09:25:10.910Z,26.47
2019-04-07T09:27:48.583Z,26.47
2019-04-07T09:30:34.645Z,23.97
2019-04-07T09:33:20.529Z,24.70
2019-04-07T09:35:58.762Z,25.67
2019-04-07T09:38:31.009Z,22.30
2019-04-07T09:41:21.584Z,23.33
2019-04-07T09:43:50.734Z,23.10
2019-04-07T09:46:26.485Z,22.50
2019-04-07T09:49:10.998Z,21.00
2019-04-07T09:51:46.729Z,19.73
2019-04-07T09:54:20.651Z,21.50
2019-04-07T09:56:53.390Z,21.07
2019-04-07T09:59:29.685Z,21.60
2019-04-07T10:02:09.229Z,19.67
2019-04-07T10:04:55.404Z,19.95
2019-04-07T10:07:44.002Z,17.47
2019-04-07T10:10:14.868Z,19.70
2019-04-07T10:12:44.816Z,18.90
2019-04-07T10:15:31.727Z,18.23
2019-04-07T10:18:18.001Z,19.30
2019-04-07T10:20:47.982Z,17.23
2019-04-07T10:23:17.938Z,17.20
2019-04-07T10:25:50.828Z,17.77
2019-04-07T10:28:20.735Z,17.10
2019-04-07T10:30:54.066Z,17.90
2019-04-07T10:33:34.324Z,16.00
2019-04-07T10:36:07.898Z,16.80
2019-04-07T10:38:41.437Z,18.42
2019-04-07T10:41:15.252Z,15.30
2019-04-07T10:43:48.707Z,16.13
2019-04-07T10:46:34.583Z,15.83
2019-04-07T10:49:13.204Z,15.78
2019-04-07T10:51:45.963Z,14.67
2019-04-07T10:54:18.680Z,14.43
2019-04-07T10:56:55.255Z,14.60
2019-04-07T10:59:25.613Z,14.90
2019-04-07T11:02:01.422Z,14.57
2019-04-07T11:04:34.110Z,13.60
2019-04-07T11:07:10.533Z,13.87
2019-04-07T11:09:46.192Z,14.63
2019-04-07T11:12:16.134Z,15.20
2019-04-07T11:14:46.599Z,15.67
2019-04-07T11:17:29.165Z,14.87
2019-04-07T11:19:59.167Z,14.07
2019-04-07T11:22:45.012Z,16.87
2019-04-07T11:25:18.343Z,15.30
2019-04-07T11:27:51.038Z,14.67
2019-04-07T11:30:21.362Z,14.90
2019-04-07T11:32:57.614Z,14.60
2019-04-07T11:35:29.901Z,14.27
2019-04-07T11:37:59.196Z,15.67
2019-04-07T11:40:30.381Z,14.93
2019-04-07T11:43:04.358Z,15.50
2019-04-07T11:45:34.455Z,14.40
2019-04-07T11:48:19.187Z,15.77
2019-04-07T11:50:52.207Z,16.70
2019-04-07T11:53:39.415Z,15.55
2019-04-07T11:56:21.732Z,15.93
2019-04-07T11:58:51.713Z,16.07
2019-04-07T12:01:36.550Z,16.10
2019-04-07T12:04:16.591Z,16.40
2019-04-07T12:06:49.880Z,15.30
2019-04-07T12:09:29.255Z,15.57
2019-04-07T12:11:59.338Z,15.20
2019-04-07T12:14:35.015Z,15.90
2019-04-07T12:17:09.336Z,14.90
2019-04-07T12:19:58.155Z,15.10
2019-04-07T12:22:28.241Z,15.50
2019-04-07T12:25:03.218Z,14.93
2019-04-07T12:27:48.416Z,15.73
2019-04-07T12:30:28.407Z,15.30
2019-04-07T12:32:58.600Z,14.40
2019-04-07T12:35:32.591Z,14.43
2019-04-07T12:38:12.291Z,15.67
2019-04-07T12:41:09.826Z,14.23
2019-04-07T12:43:39.202Z,14.10
2019-04-07T12:46:21.149Z,15.23
2019-04-07T12:49:09.382Z,15.20
2019-04-07T12:51:54.329Z,14.90
2019-04-07T12:54:34.338Z,13.60
2019-04-07T12:57:20.184Z,13.30
2019-04-07T12:59:51.399Z,13.60
2019-04-07T13:02:25.699Z,15.20
2019-04-07T13:05:13.611Z,14.83
2019-04-07T13:07:48.421Z,14.97
2019-04-07T13:10:20.734Z,13.60
2019-04-07T13:12:55.988Z,14.10
2019-04-07T13:15:31.469Z,13.47
2019-04-07T13:18:13.765Z,14.20
2019-04-07T13:20:51.825Z,13.97
2019-04-07T13:23:23.945Z,14.23
2019-04-07T13:25:56.711Z,14.73
2019-04-07T13:28:35.916Z,14.60
2019-04-07T13:31:05.814Z,15.00
2019-04-07T13:33:41.568Z,13.73
2019-04-07T13:36:17.603Z,14.57
2019-04-07T13:38:47.847Z,14.63
2019-04-07T13:41:23.772Z,13.67
2019-04-07T13:43:56.079Z,15.27
2019-04-07T13:46:35.415Z,13.57
2019-04-07T13:49:16.291Z,14.90
2019-04-07T13:52:01.028Z,12.90
2019-04-07T13:54:47.151Z,14.25
2019-04-07T13:57:26.156Z,14.60
2019-04-07T14:00:13.420Z,13.60
2019-04-07T14:02:44.316Z,13.60
2019-04-07T14:05:26.298Z,15.63
2019-04-07T14:08:00.111Z,13.60
2019-04-07T14:10:46.135Z,14.87
2019-04-07T14:13:16.083Z,14.90
2019-04-07T14:15:46.428Z,13.70
2019-04-07T14:18:19.175Z,12.43
2019-04-07T14:20:52.776Z,13.25
2019-04-07T14:23:31.600Z,14.07
2019-04-07T14:26:10.327Z,13.80
2019-04-07T14:28:45.964Z,13.70
2019-04-07T14:31:32.481Z,14.50
2019-04-07T14:34:05.513Z,15.18
2019-04-07T14:36:47.960Z,14.10
2019-04-07T14:39:21.632Z,12.97
2019-04-07T14:42:06.705Z,14.37
2019-04-07T14:44:35.840Z,14.10
2019-04-07T14:47:08.798Z,14.67
2019-04-07T14:49:57.373Z,14.37
2019-04-07T14:52:41.072Z,14.55
2019-04-07T14:55:23.716Z,15.23
2019-04-07T14:57:54.592Z,12.87
2019-04-07T15:00:36.392Z,15.67
2019-04-07T15:03:05.816Z,14.77
2019-04-07T15:05:41.871Z,15.00
2019-04-07T15:08:24.697Z,14.80
2019-04-07T15:10:58.236Z,15.53
2019-04-07T15:13:29.423Z,14.20
2019-04-07T15:15:58.309Z,16.10
2019-04-07T15:18:28.659Z,14.53
2019-04-07T15:20:59.405Z,13.90
2019-04-07T15:23:33.834Z,13.53
2019-04-07T15:26:06.741Z,14.70
2019-04-07T15:28:35.785Z,14.47
2019-04-07T15:31:04.344Z,14.23
2019-04-07T15:33:34.082Z,15.10
2019-04-07T15:36:02.689Z,16.63
2019-04-07T15:38:31.317Z,17.62
2019-04-07T15:41:01.096Z,18.73
2019-04-07T15:43:33.041Z,19.60
2019-04-07T15:46:00.116Z,20.03
2019-04-07T15:48:28.577Z,17.30
2019-04-07T15:51:00.927Z,17.97
2019-04-07T15:53:27.617Z,19.10
2019-04-07T15:56:02.027Z,18.27
2019-04-07T15:58:27.621Z,16.97
2019-04-07T16:00:56.061Z,16.83
2019-04-07T16:03:24.277Z,17.30
2019-04-07T16:05:53.403Z,17.50
2019-04-07T16:08:21.704Z,17.20
2019-04-07T16:10:52.055Z,17.23
2019-04-07T16:13:20.041Z,17.60
2019-04-07T16:15:52.826Z,17.03
2019-04-07T16:18:18.961Z,16.32
2019-04-07T16:20:47.251Z,16.40
2019-04-07T16:23:18.345Z,17.33
2019-04-07T16:25:46.363Z,16.80
2019-04-07T16:28:16.036Z,16.93
2019-04-07T16:30:48.526Z,18.20
2019-04-07T16:33:15.231Z,18.03
2019-04-07T16:35:43.967Z,17.57
2019-04-07T16:38:14.153Z,17.27
2019-04-07T16:40:43.448Z,18.67
2019-04-07T16:43:15.400Z,17.77
2019-04-07T16:45:44.104Z,16.77
2019-04-07T16:48:11.722Z,16.57
2019-04-07T16:50:40.028Z,17.20
2019-04-07T16:53:09.225Z,16.30
2019-04-07T16:55:40.287Z,17.37
2019-04-07T16:58:09.782Z,17.95
2019-04-07T17:00:38.402Z,17.05
2019-04-07T17:03:08.421Z,18.27
2019-04-07T17:05:37.526Z,17.33
2019-04-07T17:08:05.864Z,16.70
2019-04-07T17:10:35.387Z,16.97
2019-04-07T17:13:15.449Z,16.20
2019-04-07T17:15:37.452Z,16.20
2019-04-07T17:18:08.175Z,16.50
2019-04-07T17:20:37.733Z,16.17
2019-04-07T17:23:07.104Z,16.03
2019-04-07T17:25:35.908Z,17.93
2019-04-07T17:28:05.334Z,17.07
2019-04-07T17:30:35.928Z,16.93
2019-04-07T17:33:05.221Z,15.93
2019-04-07T17:35:35.568Z,17.33
2019-04-07T17:38:06.687Z,16.80
2019-04-07T17:40:37.656Z,16.00
2019-04-07T17:43:25.684Z,16.33
2019-04-07T17:45:48.074Z,18.10
2019-04-07T17:48:21.359Z,16.60
2019-04-07T17:50:51.392Z,16.90
2019-04-07T17:53:38.158Z,17.40
2019-04-07T17:56:18.056Z,17.15
2019-04-07T17:58:45.790Z,17.70
2019-04-07T18:01:22.295Z,17.07
2019-04-07T18:03:59.462Z,17.73
2019-04-07T18:06:32.102Z,18.30
2019-04-07T18:09:19.732Z,17.60
2019-04-07T18:12:04.395Z,18.10
2019-04-07T18:14:31.810Z,17.30
2019-04-07T18:17:02.425Z,17.97
2019-04-07T18:19:38.137Z,18.73
2019-04-07T18:22:08.205Z,18.40
2019-04-07T18:24:38.160Z,18.77
2019-04-07T18:27:12.417Z,18.90
2019-04-07T18:29:39.762Z,17.80
2019-04-07T18:32:27.524Z,18.53
2019-04-07T18:35:14.127Z,20.50
2019-04-07T18:37:50.121Z,19.50
2019-04-07T18:40:27.326Z,18.70
2019-04-07T18:43:14.568Z,18.77
2019-04-07T18:45:59.546Z,20.17
2019-04-07T18:48:29.468Z,20.47
2019-04-07T18:51:07.977Z,20.30
2019-04-07T18:53:37.361Z,20.70
2019-04-07T18:56:10.755Z,21.10
2019-04-07T18:58:46.991Z,20.73
2019-04-07T19:01:16.914Z,23.67
2019-04-07T19:04:02.458Z,22.02
2019-04-07T19:06:50.293Z,21.20
2019-04-07T19:09:38.029Z,21.67
2019-04-07T19:12:24.779Z,20.27
2019-04-07T19:15:07.900Z,21.03
2019-04-07T19:17:54.680Z,21.45
2019-04-07T19:20:34.131Z,21.83
2019-04-07T19:23:04.406Z,21.60
2019-04-07T19:25:34.335Z,21.90
2019-04-07T19:28:20.486Z,21.87
2019-04-07T19:30:51.644Z,23.13
2019-04-07T19:33:38.207Z,22.10
2019-04-07T19:36:24.338Z,23.12
2019-04-07T19:39:12.016Z,22.93
2019-04-07T19:41:44.735Z,23.00
2019-04-07T19:44:18.773Z,24.97
2019-04-07T19:47:00.027Z,22.07
2019-04-07T19:49:38.930Z,23.10
2019-04-07T19:52:20.944Z,20.40
2019-04-07T19:55:05.908Z,22.75
2019-04-07T19:57:44.925Z,20.33
2019-04-07T20:00:31.180Z,21.10
2019-04-07T20:03:17.933Z,23.97
2019-04-07T20:05:50.173Z,20.93
2019-04-07T20:08:20.696Z,20.27
2019-04-07T20:10:52.294Z,21.60
2019-04-07T20:13:28.235Z,21.43
2019-04-07T20:15:59.159Z,20.85
2019-04-07T20:18:33.030Z,20.27
2019-04-07T20:21:17.440Z,22.90
2019-04-07T20:24:05.009Z,23.65
2019-04-07T20:26:40.582Z,21.30
2019-04-07T20:29:11.101Z,21.13
2019-04-07T20:31:54.594Z,19.70
2019-04-07T20:34:25.290Z,22.25
2019-04-07T20:36:57.900Z,21.53
2019-04-07T20:39:32.602Z,21.97
2019-04-07T20:42:01.948Z,21.55
2019-04-07T20:44:58.394Z,23.32
2019-04-07T20:47:19.691Z,22.10
2019-04-07T20:49:58.856Z,21.65
2019-04-07T20:52:29.863Z,23.02
2019-04-07T20:55:04.783Z,22.98
2019-04-07T20:57:53.909Z,24.30
2019-04-07T21:00:38.223Z,24.07
2019-04-07T21:03:26.781Z,22.30
2019-04-07T21:06:12.647Z,24.03
2019-04-07T21:08:48.169Z,26.70
2019-04-07T21:11:21.577Z,24.57
2019-04-07T21:13:52.425Z,25.60
2019-04-07T21:16:31.220Z,25.03
2019-04-07T21:19:09.851Z,24.23
2019-04-07T21:21:57.653Z,25.80
2019-04-07T21:24:30.359Z,23.20
2019-04-07T21:27:12.301Z,23.67
2019-04-07T21:29:51.128Z,23.63
2019-04-07T21:32:23.628Z,23.73
2019-04-07T21:34:53.589Z,24.13
2019-04-07T21:37:32.650Z,24.72
2019-04-07T21:40:17.569Z,23.15
2019-04-07T21:43:02.653Z,24.57
2019-04-07T21:45:53.051Z,23.60
2019-04-07T21:48:39.122Z,26.20
2019-04-07T21:51:13.482Z,24.40
2019-04-07T21:53:57.452Z,24.27
2019-04-07T21:56:39.087Z,24.50
2019-04-07T21:59:14.940Z,25.20
2019-04-07T22:01:47.946Z,27.13
2019-04-07T22:04:20.668Z,26.17
2019-04-07T22:06:50.804Z,24.60
2019-04-07T22:09:35.855Z,25.00
2019-04-07T22:12:04.123Z,26.03
2019-04-07T22:14:32.398Z,28.87
2019-04-07T22:17:02.929Z,25.70
2019-04-07T22:19:30.650Z,28.00
2019-04-07T22:21:58.939Z,26.30
2019-04-07T22:24:31.277Z,26.00
2019-04-07T22:26:57.225Z,26.20
2019-04-07T22:29:25.462Z,29.50
2019-04-07T22:31:55.610Z,29.42
2019-04-07T22:34:24.768Z,27.53
2019-04-07T22:36:53.757Z,29.07
2019-04-07T22:39:22.599Z,29.18
2019-04-07T22:41:50.908Z,29.03
2019-04-07T22:44:20.377Z,27.05
2019-04-07T22:46:51.221Z,28.83
2019-04-07T22:49:19.810Z,29.00
2019-04-07T22:51:50.430Z,28.67
2019-04-07T22:54:18.903Z,27.20
2019-04-07T22:56:47.126Z,31.47
2019-04-07T22:59:15.483Z,28.70
2019-04-07T23:01:43.735Z,28.27
2019-04-07T23:04:12.050Z,30.40
2019-04-07T23:06:40.452Z,28.10
2019-04-07T23:09:08.728Z,30.27
2019-04-07T23:11:37.638Z,28.80
2019-04-07T23:14:06.102Z,26.50
2019-04-07T23:16:34.366Z,30.27
2019-04-07T23:19:02.768Z,27.03
2019-04-07T23:21:31.792Z,29.77
2019-04-07T23:24:01.061Z,30.10
2019-04-07T23:26:29.889Z,28.75
2019-04-07T23:28:58.474Z,30.63
2019-04-07T23:31:27.879Z,30.05
2019-04-07T23:33:56.519Z,31.85
2019-04-07T23:36:24.855Z,29.57
2019-04-07T23:38:53.830Z,29.35
2019-04-07T23:41:22.240Z,31.05
2019-04-07T23:43:50.597Z,31.23
2019-04-07T23:46:24.287Z,28.80
2019-04-07T23:48:49.550Z,29.70
2019-04-07T23:51:18.565Z,29.70
2019-04-07T23:54:07.247Z,31.17
2019-04-07T23:56:35.712Z,30.57
2019-04-07T23:59:04.020Z,30.25
